Time;durP1;ratioP1;P1;durP2;ratioP2;P2;SDS_P1;SDS_P2;PMS_P1;PMS_P2;Temp;Humidity;BMP_temperature;BMP_pressure;BME280_temperature;BME280_humidity;BME280_pressure;Samples;Min_cycle;Max_cycle;Signal;HPM_P1;HPM_P2
2022/07/31 00:00:06;;;;;;;6.40;2.42;;;18.20;99.90;;;;;;5025551;28;20175;-69
2022/07/31 00:02:32;;;;;;;5.07;1.98;;;18.10;99.90;;;;;;5025425;28;20060;-69
2022/07/31 00:04:57;;;;;;;5.70;2.10;;;18.20;99.90;;;;;;5014020;28;20041;-71
2022/07/31 00:07:23;;;;;;;5.45;3.08;;;18.20;99.90;;;;;;5011119;28;20061;-70
2022/07/31 00:09:49;;;;;;;4.25;2.20;;;18.10;99.90;;;;;;5025535;28;20041;-70
2022/07/31 00:12:14;;;;;;;7.90;1.83;;;18.10;99.90;;;;;;5010361;28;20250;-71
2022/07/31 00:14:40;;;;;;;5.32;2.80;;;18.20;99.90;;;;;;5024503;28;20049;-70
2022/07/31 00:17:06;;;;;;;5.13;2.63;;;18.10;99.90;;;;;;5024640;28;20037;-70
2022/07/31 00:19:32;;;;;;;14.00;3.72;;;18.10;99.90;;;;;;5021883;28;20045;-69
2022/07/31 00:21:57;;;;;;;4.28;2.70;;;18.10;99.90;;;;;;5026549;28;20068;-70
2022/07/31 00:24:23;;;;;;;6.45;3.55;;;18.00;99.90;;;;;;5026159;28;20551;-69
2022/07/31 00:26:49;;;;;;;4.10;3.00;;;18.00;99.90;;;;;;5023009;28;20040;-69
2022/07/31 00:29:15;;;;;;;8.55;3.28;;;18.00;99.90;;;;;;5027613;28;20038;-69
2022/07/31 00:31:40;;;;;;;7.07;3.42;;;17.90;99.90;;;;;;5021143;28;20038;-70
2022/07/31 00:34:06;;;;;;;5.85;3.15;;;17.90;99.90;;;;;;5024558;28;20430;-70
2022/07/31 00:36:32;;;;;;;5.55;3.58;;;18.00;99.90;;;;;;5025766;28;20490;-70
2022/07/31 00:38:57;;;;;;;6.03;4.20;;;17.90;99.90;;;;;;5025425;28;20053;-69
2022/07/31 00:41:23;;;;;;;4.90;3.30;;;17.90;99.90;;;;;;5023527;28;20041;-69
2022/07/31 00:43:49;;;;;;;6.55;3.55;;;17.90;99.90;;;;;;5023467;28;20069;-69
2022/07/31 00:46:15;;;;;;;39.00;4.38;;;17.90;99.90;;;;;;5023901;28;20465;-70
2022/07/31 00:48:40;;;;;;;7.57;4.32;;;17.90;99.90;;;;;;5027499;28;20042;-70
2022/07/31 00:51:06;;;;;;;3.33;3.00;;;17.90;99.90;;;;;;5024286;28;20049;-70
2022/07/31 00:53:32;;;;;;;8.77;4.13;;;17.90;99.90;;;;;;5024407;28;20512;-71
2022/07/31 00:55:57;;;;;;;4.90;3.58;;;18.00;99.90;;;;;;5022163;28;20033;-70
2022/07/31 00:58:24;;;;;;;4.68;4.05;;;17.90;99.90;;;;;;4989195;28;20451;-70
2022/07/31 01:00:50;;;;;;;7.78;3.67;;;17.80;99.90;;;;;;4998025;28;20033;-71
2022/07/31 01:03:17;;;;;;;10.63;4.45;;;17.90;99.90;;;;;;5024749;28;20087;-70
2022/07/31 01:05:43;;;;;;;7.05;3.55;;;17.80;99.90;;;;;;5022873;28;20093;-70
2022/07/31 01:08:09;;;;;;;5.07;3.63;;;17.90;99.90;;;;;;5023409;28;20117;-70
2022/07/31 01:10:55;;;;;;;5.80;4.07;;;17.80;99.90;;;;;;5022871;28;20046;-70
2022/07/31 01:13:41;;;;;;;6.28;3.25;;;17.80;99.90;;;;;;5022473;28;20046;-70
2022/07/31 01:16:10;;;;;;;5.65;3.50;;;17.90;99.90;;;;;;5024546;28;20046;-70
2022/07/31 01:18:38;;;;;;;4.50;3.35;;;17.70;99.90;;;;;;5024295;28;20083;-70
2022/07/31 01:21:07;;;;;;;6.03;3.75;;;17.70;99.90;;;;;;5022336;28;20045;-70
2022/07/31 01:23:51;;;;;;;4.07;2.97;;;17.70;99.90;;;;;;5021205;28;20468;-70
2022/07/31 01:26:22;;;;;;;7.93;3.17;;;17.80;99.90;;;;;;5007218;28;20148;-70
2022/07/31 01:29:08;;;;;;;6.43;2.63;;;17.80;99.90;;;;;;5010868;28;20041;-69
2022/07/31 01:32:08;;;;;;;6.35;3.13;;;17.70;99.90;;;;;;5020122;28;20045;-69
2022/07/31 01:34:41;;;;;;;4.90;2.83;;;17.80;99.90;;;;;;4992650;28;20073;-70
2022/07/31 01:37:19;;;;;;;5.95;3.63;;;17.70;99.90;;;;;;5021958;28;20044;-70
2022/07/31 01:40:04;;;;;;;5.90;3.63;;;17.70;99.90;;;;;;5012060;28;20040;-70
2022/07/31 01:42:33;;;;;;;6.30;3.25;;;17.80;99.90;;;;;;5024906;28;20136;-70
2022/07/31 01:45:01;;;;;;;18.00;4.45;;;17.80;99.90;;;;;;5021994;28;20760;-69
2022/07/31 01:47:29;;;;;;;7.97;3.67;;;17.80;99.90;;;;;;5021786;28;20049;-69
2022/07/31 01:49:57;;;;;;;3.72;2.60;;;17.80;99.90;;;;;;5021713;28;20403;-71
2022/07/31 01:52:27;;;;;;;4.13;2.33;;;17.80;99.90;;;;;;5023272;28;20062;-71
2022/07/31 01:54:54;;;;;;;4.88;2.78;;;17.80;99.90;;;;;;5024902;28;20049;-69
2022/07/31 01:57:23;;;;;;;5.53;2.78;;;17.90;99.90;;;;;;5023507;28;20049;-69
2022/07/31 01:59:52;;;;;;;8.02;2.95;;;17.80;99.90;;;;;;5005020;28;20072;-68
2022/07/31 02:02:19;;;;;;;4.22;2.55;;;17.90;99.90;;;;;;5023305;28;20045;-70
2022/07/31 02:04:46;;;;;;;7.53;3.58;;;17.80;99.90;;;;;;5021906;28;20424;-71
2022/07/31 02:07:13;;;;;;;4.53;2.72;;;17.80;99.90;;;;;;5024411;28;20057;-70
2022/07/31 02:09:42;;;;;;;4.93;3.10;;;17.70;99.90;;;;;;5023117;28;20045;-70
2022/07/31 02:12:10;;;;;;;6.18;2.63;;;17.80;99.90;;;;;;5024098;28;20119;-71
2022/07/31 02:14:39;;;;;;;3.67;2.42;;;17.80;99.90;;;;;;5021649;28;20048;-71
2022/07/31 02:17:07;;;;;;;3.40;3.05;;;17.70;99.90;;;;;;5022209;28;20127;-71
2022/07/31 02:19:35;;;;;;;4.97;3.03;;;17.80;99.90;;;;;;5024015;28;20056;-70
2022/07/31 02:22:01;;;;;;;4.80;2.83;;;17.70;99.90;;;;;;5021975;28;20152;-70
2022/07/31 02:24:26;;;;;;;4.45;2.75;;;17.70;99.90;;;;;;5024182;28;20566;-71
2022/07/31 02:26:53;;;;;;;8.80;3.70;;;17.70;99.90;;;;;;5018855;28;20116;-69
2022/07/31 02:29:19;;;;;;;4.55;3.03;;;17.70;99.90;;;;;;5023409;28;20330;-67
2022/07/31 02:31:47;;;;;;;5.03;2.80;;;17.60;99.90;;;;;;5022021;28;20088;-71
2022/07/31 02:34:15;;;;;;;7.35;2.88;;;17.70;99.90;;;;;;5022418;28;20127;-70
2022/07/31 02:36:42;;;;;;;5.95;3.05;;;17.70;99.90;;;;;;5010933;28;20053;-70
2022/07/31 02:39:10;;;;;;;5.18;3.05;;;17.70;99.90;;;;;;5007231;28;20068;-71
2022/07/31 02:41:36;;;;;;;4.32;2.88;;;17.70;99.90;;;;;;5005337;28;20120;-69
2022/07/31 02:44:02;;;;;;;2.75;2.53;;;17.70;99.90;;;;;;5022879;28;20447;-69
2022/07/31 02:46:28;;;;;;;5.05;3.10;;;17.70;99.90;;;;;;5021874;28;20045;-71
2022/07/31 02:48:55;;;;;;;4.72;3.03;;;17.70;99.90;;;;;;5022535;28;20051;-70
2022/07/31 02:51:22;;;;;;;8.30;2.78;;;17.70;99.90;;;;;;5023559;28;20034;-69
2022/07/31 02:53:48;;;;;;;4.97;2.97;;;17.60;99.90;;;;;;5021089;28;20132;-69
2022/07/31 02:56:15;;;;;;;4.45;2.60;;;17.70;99.90;;;;;;5022764;28;20148;-69
2022/07/31 02:58:41;;;;;;;9.43;3.97;;;17.70;99.90;;;;;;5024077;28;20037;-68
2022/07/31 03:01:07;;;;;;;3.50;2.58;;;17.70;99.90;;;;;;5015193;28;20045;-69
2022/07/31 03:03:33;;;;;;;6.63;3.15;;;17.70;99.90;;;;;;5020318;28;20139;-69
2022/07/31 03:05:59;;;;;;;10.45;4.45;;;17.60;99.90;;;;;;5020553;28;20053;-69
2022/07/31 03:08:26;;;;;;;4.47;3.17;;;17.60;99.90;;;;;;5022933;28;20045;-69
2022/07/31 03:10:52;;;;;;;4.88;3.80;;;17.60;99.90;;;;;;5022290;28;20104;-69
2022/07/31 03:13:19;;;;;;;3.53;3.20;;;17.50;99.90;;;;;;5005846;28;20077;-69
2022/07/31 03:15:47;;;;;;;4.15;3.42;;;17.50;99.90;;;;;;5005554;28;20041;-69
2022/07/31 03:18:15;;;;;;;4.40;3.92;;;17.40;99.90;;;;;;5022242;28;20329;-69
2022/07/31 03:20:45;;;;;;;4.40;4.00;;;17.50;99.90;;;;;;5021741;28;20408;-69
2022/07/31 03:23:12;;;;;;;10.20;4.10;;;17.40;99.90;;;;;;5027359;28;20052;-70
2022/07/31 03:25:40;;;;;;;7.10;4.03;;;17.20;99.90;;;;;;5027324;28;20063;-70
2022/07/31 03:28:07;;;;;;;9.00;3.72;;;17.20;99.90;;;;;;5026986;28;20056;-69
2022/07/31 03:30:34;;;;;;;5.22;3.35;;;17.20;99.90;;;;;;5025352;28;20092;-69
2022/07/31 03:33:02;;;;;;;4.53;3.60;;;17.10;99.90;;;;;;5021562;28;20084;-70
2022/07/31 03:35:28;;;;;;;6.95;3.55;;;17.10;99.90;;;;;;5024499;28;20381;-71
2022/07/31 03:37:54;;;;;;;5.45;3.80;;;17.10;99.90;;;;;;5024717;28;20051;-69
2022/07/31 03:40:20;;;;;;;8.10;3.95;;;17.10;99.90;;;;;;5025094;28;20038;-71
2022/07/31 03:42:48;;;;;;;6.40;4.88;;;17.10;99.90;;;;;;5028626;28;20041;-70
2022/07/31 03:45:15;;;;;;;4.75;4.10;;;17.20;99.90;;;;;;5025891;28;20045;-69
2022/07/31 03:47:41;;;;;;;5.60;3.97;;;17.10;99.90;;;;;;5025964;28;20104;-70
2022/07/31 03:50:08;;;;;;;6.20;3.78;;;17.10;99.90;;;;;;5004606;28;20041;-70
2022/07/31 03:52:34;;;;;;;5.95;3.92;;;17.20;99.90;;;;;;5026421;28;20053;-69
2022/07/31 03:55:00;;;;;;;6.88;4.25;;;17.10;99.90;;;;;;5024957;28;20302;-69
2022/07/31 03:57:28;;;;;;;5.25;4.25;;;17.10;99.90;;;;;;5024069;28;20099;-69
2022/07/31 03:59:56;;;;;;;8.98;4.93;;;17.10;99.90;;;;;;5025509;28;20045;-69
2022/07/31 04:02:25;;;;;;;6.75;3.78;;;17.10;99.90;;;;;;5007637;28;20077;-69
2022/07/31 04:04:51;;;;;;;7.40;4.35;;;17.10;99.90;;;;;;5025806;28;20084;-71
2022/07/31 04:07:17;;;;;;;6.65;4.05;;;17.20;99.90;;;;;;5024713;28;20069;-69
2022/07/31 04:09:43;;;;;;;7.95;4.45;;;17.20;99.90;;;;;;5024074;28;20083;-69
2022/07/31 04:12:09;;;;;;;6.90;4.93;;;17.20;99.90;;;;;;5005906;28;20128;-71
2022/07/31 04:14:34;;;;;;;4.57;4.18;;;17.20;99.90;;;;;;5025056;28;20042;-69
2022/07/31 04:17:00;;;;;;;8.18;4.88;;;17.10;99.90;;;;;;5025597;28;20381;-70
2022/07/31 04:19:29;;;;;;;5.75;3.92;;;17.20;99.90;;;;;;5025588;28;20081;-71
2022/07/31 04:21:56;;;;;;;8.40;3.87;;;17.20;99.90;;;;;;5026413;28;20073;-71
2022/07/31 04:24:22;;;;;;;5.50;3.60;;;17.20;99.90;;;;;;5022837;28;20303;-69
2022/07/31 04:26:49;;;;;;;8.65;4.55;;;17.20;99.90;;;;;;5025972;28;20041;-69
2022/07/31 04:29:15;;;;;;;7.65;4.15;;;17.20;99.90;;;;;;5008306;28;20561;-71
2022/07/31 04:31:41;;;;;;;8.10;4.30;;;17.30;99.90;;;;;;5024707;28;20107;-70
2022/07/31 04:34:06;;;;;;;6.72;4.55;;;17.30;99.90;;;;;;5021911;28;20045;-70
2022/07/31 04:36:32;;;;;;;8.82;4.03;;;17.30;99.90;;;;;;5026456;28;20110;-72
2022/07/31 04:38:59;;;;;;;4.97;3.85;;;17.30;99.90;;;;;;5023494;28;20559;-69
2022/07/31 04:41:24;;;;;;;5.00;4.50;;;17.30;99.90;;;;;;5021348;28;20033;-71
2022/07/31 04:43:50;;;;;;;8.00;4.22;;;17.30;99.90;;;;;;5022677;28;20037;-70
2022/07/31 04:46:15;;;;;;;5.28;4.10;;;17.40;99.90;;;;;;5008670;28;20491;-71
2022/07/31 04:48:41;;;;;;;9.68;4.72;;;17.50;99.90;;;;;;5024379;28;20034;-69
2022/07/31 04:51:07;;;;;;;9.20;4.80;;;17.40;99.90;;;;;;5026102;28;20527;-70
2022/07/31 04:53:32;;;;;;;5.70;4.55;;;17.50;99.90;;;;;;5024444;28;20443;-69
2022/07/31 04:58:42;;;;;;;6.13;5.38;;;17.50;99.90;;;;;;5025406;28;20037;-71
2022/07/31 05:01:08;;;;;;;6.63;3.85;;;17.50;99.90;;;;;;5024432;28;20061;-69
2022/07/31 05:03:34;;;;;;;7.05;4.00;;;17.60;99.90;;;;;;5023744;28;20064;-69
2022/07/31 05:06:10;;;;;;;8.07;4.97;;;17.70;99.90;;;;;;5021511;28;20048;-70
2022/07/31 05:08:36;;;;;;;4.32;3.88;;;17.70;99.90;;;;;;5020882;28;20033;-68
2022/07/31 05:13:46;;;;;;;11.77;4.40;;;17.80;99.90;;;;;;5016817;28;20111;-70
2022/07/31 05:16:12;;;;;;;8.20;4.00;;;17.80;99.90;;;;;;5018764;28;20045;-71
2022/07/31 05:18:38;;;;;;;7.30;4.88;;;17.70;99.90;;;;;;5023927;28;20048;-69
2022/07/31 05:21:04;;;;;;;6.95;4.50;;;17.70;99.90;;;;;;5017232;28;20041;-70
2022/07/31 05:23:29;;;;;;;7.22;4.18;;;17.90;99.90;;;;;;5023193;28;20045;-70
2022/07/31 05:25:55;;;;;;;7.15;4.35;;;17.80;99.90;;;;;;5024883;28;20366;-69
2022/07/31 05:28:21;;;;;;;7.13;4.75;;;17.80;99.90;;;;;;5020328;28;20041;-69
2022/07/31 05:30:46;;;;;;;5.43;4.70;;;17.80;99.90;;;;;;5017667;28;20353;-69
2022/07/31 05:33:12;;;;;;;6.07;5.22;;;17.80;99.90;;;;;;5024662;28;20045;-69
2022/07/31 05:35:38;;;;;;;6.90;4.60;;;17.90;99.90;;;;;;5025132;28;20058;-69
2022/07/31 05:38:03;;;;;;;7.70;4.43;;;17.90;99.90;;;;;;5023308;28;20087;-69
2022/07/31 05:40:29;;;;;;;5.05;4.60;;;18.00;99.90;;;;;;5026021;28;20416;-70
2022/07/31 05:42:55;;;;;;;7.60;4.68;;;18.00;99.90;;;;;;5025163;28;20184;-70
2022/07/31 05:45:20;;;;;;;9.05;4.32;;;17.90;99.90;;;;;;5025136;28;20054;-70
2022/07/31 05:47:46;;;;;;;5.85;5.25;;;18.10;99.90;;;;;;5023735;28;20037;-70
2022/07/31 05:50:13;;;;;;;7.82;5.00;;;18.00;99.90;;;;;;5024705;28;20112;-70
2022/07/31 05:52:39;;;;;;;5.72;4.07;;;18.10;99.90;;;;;;5024003;28;20061;-69
2022/07/31 05:55:05;;;;;;;5.40;4.63;;;18.10;99.90;;;;;;4989618;28;20055;-70
2022/07/31 05:57:30;;;;;;;6.72;3.83;;;18.10;99.90;;;;;;5005001;28;20464;-69
2022/07/31 05:59:56;;;;;;;8.18;4.50;;;18.20;99.90;;;;;;5019865;28;20088;-70
2022/07/31 06:02:22;;;;;;;7.10;4.57;;;18.30;99.90;;;;;;5005913;28;20164;-69
2022/07/31 06:04:48;;;;;;;8.82;5.10;;;18.20;99.90;;;;;;5013473;28;20118;-69
2022/07/31 06:07:13;;;;;;;11.05;6.07;;;18.30;99.90;;;;;;5022373;28;20029;-70
2022/07/31 06:09:39;;;;;;;8.13;4.63;;;18.30;99.90;;;;;;5024769;28;20041;-69
2022/07/31 06:12:05;;;;;;;6.50;5.13;;;18.30;99.90;;;;;;5022705;28;20042;-69
2022/07/31 06:14:32;;;;;;;6.97;4.35;;;18.40;99.90;;;;;;5024322;28;20058;-69
2022/07/31 06:16:58;;;;;;;8.63;4.57;;;18.40;99.90;;;;;;5025337;28;20734;-70
2022/07/31 06:19:24;;;;;;;9.27;5.00;;;18.40;99.90;;;;;;5019920;28;20100;-69
2022/07/31 06:21:50;;;;;;;8.63;4.57;;;18.40;99.90;;;;;;5022866;28;20084;-69
2022/07/31 06:24:16;;;;;;;9.00;4.88;;;18.30;99.90;;;;;;5024858;28;20439;-70
2022/07/31 06:26:42;;;;;;;6.78;3.95;;;18.40;99.90;;;;;;5022723;28;20385;-69
2022/07/31 06:29:08;;;;;;;6.65;4.95;;;18.40;99.90;;;;;;5010729;28;20044;-69
2022/07/31 06:31:33;;;;;;;8.07;5.03;;;18.50;99.90;;;;;;5024004;28;20095;-69
2022/07/31 06:33:59;;;;;;;6.93;4.72;;;18.50;99.90;;;;;;5022954;28;20057;-69
2022/07/31 06:36:25;;;;;;;9.13;5.05;;;18.50;99.90;;;;;;5023162;28;20081;-70
2022/07/31 06:38:51;;;;;;;10.73;5.32;;;18.60;99.90;;;;;;5025158;28;20045;-70
2022/07/31 06:44:01;;;;;;;5.45;4.13;;;18.60;99.90;;;;;;5022710;28;20083;-70
2022/07/31 06:46:27;;;;;;;8.32;5.10;;;18.70;99.90;;;;;;5023898;28;20049;-69
2022/07/31 06:48:53;;;;;;;9.38;5.25;;;18.80;99.90;;;;;;5018959;28;20034;-70
2022/07/31 06:51:19;;;;;;;7.30;5.68;;;18.80;99.90;;;;;;5022914;28;20556;-68
2022/07/31 06:53:45;;;;;;;5.85;4.97;;;18.90;99.90;;;;;;5024946;28;20104;-70
2022/07/31 06:56:11;;;;;;;7.00;4.88;;;19.00;99.90;;;;;;5024341;28;20049;-71
2022/07/31 06:58:37;;;;;;;9.32;5.40;;;18.90;99.90;;;;;;5026263;28;20727;-72
2022/07/31 07:01:02;;;;;;;7.07;5.20;;;19.10;99.90;;;;;;5027210;28;20049;-70
2022/07/31 07:03:28;;;;;;;6.60;5.93;;;19.20;99.90;;;;;;5024194;28;20091;-71
2022/07/31 07:05:54;;;;;;;8.20;4.85;;;19.40;99.90;;;;;;5027731;28;20037;-69
2022/07/31 07:08:19;;;;;;;7.03;5.40;;;19.50;99.90;;;;;;5029001;28;20512;-70
2022/07/31 07:10:46;;;;;;;9.55;6.13;;;19.50;99.90;;;;;;5029089;28;20084;-70
2022/07/31 07:13:11;;;;;;;8.15;7.15;;;19.50;99.90;;;;;;5028739;28;20041;-70
2022/07/31 07:15:37;;;;;;;8.15;5.60;;;19.60;99.90;;;;;;5028637;28;20361;-71
2022/07/31 07:18:03;;;;;;;9.85;6.55;;;19.70;99.90;;;;;;5024003;28;20053;-70
2022/07/31 07:20:28;;;;;;;5.88;5.38;;;19.80;99.90;;;;;;5024571;28;20084;-71
2022/07/31 07:22:54;;;;;;;10.75;6.18;;;19.90;99.90;;;;;;5026534;28;20072;-70
2022/07/31 07:25:20;;;;;;;7.82;6.95;;;20.00;99.90;;;;;;5024252;28;20069;-70
2022/07/31 07:27:46;;;;;;;9.98;6.60;;;20.00;99.90;;;;;;5028288;28;20092;-71
2022/07/31 07:30:11;;;;;;;10.68;6.82;;;19.80;99.90;;;;;;5023214;28;20532;-70
2022/07/31 07:32:37;;;;;;;10.68;7.70;;;19.80;99.90;;;;;;5010866;28;20444;-71
2022/07/31 07:35:03;;;;;;;12.90;6.28;;;19.90;99.90;;;;;;5026067;28;20077;-71
2022/07/31 07:37:29;;;;;;;11.52;6.50;;;19.80;99.90;;;;;;5008373;28;20384;-71
2022/07/31 07:39:55;;;;;;;9.75;6.60;;;19.90;99.90;;;;;;5027375;28;20045;-71
2022/07/31 07:42:21;;;;;;;8.80;6.60;;;20.00;99.90;;;;;;5008226;28;20081;-70
2022/07/31 07:44:46;;;;;;;9.77;6.65;;;20.00;99.90;;;;;;5026910;28;20526;-72
2022/07/31 07:47:12;;;;;;;8.85;5.97;;;20.10;99.90;;;;;;5019457;28;20041;-71
2022/07/31 07:49:38;;;;;;;9.80;5.93;;;20.00;99.90;;;;;;5017487;28;20443;-71
2022/07/31 07:52:03;;;;;;;8.02;6.82;;;20.20;99.90;;;;;;5006424;28;20743;-70
2022/07/31 07:54:29;;;;;;;11.20;6.68;;;20.20;99.90;;;;;;5015677;28;20046;-71
2022/07/31 07:56:55;;;;;;;8.85;6.25;;;20.20;99.90;;;;;;5007739;28;20037;-70
2022/07/31 07:59:21;;;;;;;9.23;6.18;;;20.20;99.90;;;;;;5026714;28;20585;-71
2022/07/31 08:01:46;;;;;;;13.52;7.47;;;20.10;99.90;;;;;;5027657;28;20393;-71
2022/07/31 08:04:12;;;;;;;12.10;7.05;;;20.20;99.90;;;;;;5020681;28;20075;-71
2022/07/31 08:06:38;;;;;;;9.23;6.15;;;20.20;99.90;;;;;;5010140;28;20340;-72
2022/07/31 08:09:03;;;;;;;13.40;7.18;;;20.20;99.90;;;;;;5007207;28;20644;-72
2022/07/31 08:11:29;;;;;;;10.80;7.32;;;20.20;99.90;;;;;;5016067;28;20046;-73
2022/07/31 08:13:55;;;;;;;11.40;7.15;;;20.20;99.90;;;;;;5024640;28;20091;-72
2022/07/31 08:16:21;;;;;;;13.25;9.02;;;20.30;99.90;;;;;;5025085;28;20041;-75
2022/07/31 08:18:48;;;;;;;8.93;8.00;;;20.10;99.90;;;;;;5022853;28;20051;-71
2022/07/31 08:21:14;;;;;;;9.48;8.07;;;20.10;99.90;;;;;;5020789;28;20405;-71
2022/07/31 08:23:39;;;;;;;11.85;8.00;;;20.00;99.90;;;;;;5019758;28;20053;-72
2022/07/31 08:26:07;;;;;;;12.85;9.85;;;19.90;99.90;;;;;;5011440;28;20052;-71
2022/07/31 08:28:33;;;;;;;14.38;9.23;;;19.90;99.90;;;;;;5023339;28;20086;-72
2022/07/31 08:31:00;;;;;;;16.67;10.57;;;19.80;99.90;;;;;;5027184;28;20048;-71
2022/07/31 08:33:25;;;;;;;10.90;8.70;;;19.90;99.90;;;;;;5024879;28;20053;-71
2022/07/31 08:35:51;;;;;;;15.10;10.07;;;19.70;99.90;;;;;;5018180;28;20045;-70
2022/07/31 08:38:18;;;;;;;15.80;11.20;;;19.70;99.90;;;;;;5027973;28;20041;-72
2022/07/31 08:40:45;;;;;;;19.42;12.25;;;19.70;99.90;;;;;;5027732;28;20045;-71
2022/07/31 08:43:12;;;;;;;17.10;10.15;;;19.50;99.90;;;;;;5026060;28;20051;-71
2022/07/31 08:45:40;;;;;;;15.60;12.27;;;19.40;99.90;;;;;;5026307;28;20060;-71
2022/07/31 08:48:07;;;;;;;18.23;12.52;;;19.50;99.90;;;;;;5024273;28;20590;-72
2022/07/31 08:50:37;;;;;;;17.10;13.50;;;19.40;99.90;;;;;;5025508;28;20045;-72
2022/07/31 08:53:04;;;;;;;19.15;11.68;;;19.20;99.90;;;;;;5021796;28;20101;-72
2022/07/31 08:55:32;;;;;;;17.58;12.38;;;19.40;99.90;;;;;;5026992;28;20045;-71
2022/07/31 08:57:58;;;;;;;17.25;12.90;;;19.20;99.90;;;;;;5025650;28;20107;-71
2022/07/31 09:00:24;;;;;;;17.02;13.10;;;19.20;99.90;;;;;;5025094;28;20135;-71
2022/07/31 09:02:51;;;;;;;21.48;13.68;;;19.30;99.90;;;;;;5025620;28;20518;-71
2022/07/31 09:05:19;;;;;;;19.73;13.50;;;19.60;99.90;;;;;;5027703;28;20508;-72
2022/07/31 09:07:45;;;;;;;15.23;11.82;;;19.30;99.90;;;;;;5028037;28;20049;-71
2022/07/31 09:10:22;;;;;;;17.63;13.45;;;19.50;99.90;;;;;;5025941;28;20051;-72
2022/07/31 09:12:47;;;;;;;19.20;12.48;;;19.20;99.90;;;;;;5024990;28;20045;-72
2022/07/31 09:15:28;;;;;;;17.35;13.95;;;19.60;99.90;;;;;;5027540;28;20044;-71
2022/07/31 09:17:55;;;;;;;25.70;14.65;;;19.40;99.90;;;;;;5025339;28;20044;-73
2022/07/31 09:20:23;;;;;;;19.20;14.43;;;19.30;99.90;;;;;;5023049;28;20377;-71
2022/07/31 09:23:03;;;;;;;22.83;14.80;;;19.50;99.90;;;;;;5026769;28;20064;-71
2022/07/31 09:25:29;;;;;;;18.17;14.90;;;19.50;99.90;;;;;;5007867;28;20154;-71
2022/07/31 09:28:02;;;;;;;21.67;14.15;;;19.60;99.90;;;;;;5022968;28;20492;-71
2022/07/31 09:30:27;;;;;;;21.52;16.30;;;19.20;99.90;;;;;;5022599;28;20095;-78
2022/07/31 09:32:53;;;;;;;15.85;13.27;;;19.10;99.90;;;;;;5022101;28;20046;-71
2022/07/31 09:35:19;;;;;;;19.83;14.65;;;19.40;99.90;;;;;;5022340;28;20041;-71
2022/07/31 09:37:48;;;;;;;22.15;16.05;;;19.40;99.90;;;;;;5024144;28;20041;-72
2022/07/31 09:40:14;;;;;;;21.23;15.10;;;19.40;99.90;;;;;;5025428;28;20041;-73
2022/07/31 09:42:44;;;;;;;17.13;14.85;;;19.40;99.90;;;;;;5025057;28;20061;-72
2022/07/31 09:45:23;;;;;;;17.48;14.52;;;19.00;99.90;;;;;;5026690;28;20124;-72
2022/07/31 09:48:03;;;;;;;17.95;15.35;;;19.40;99.90;;;;;;5025076;28;20064;-70
2022/07/31 09:50:32;;;;;;;20.45;16.65;;;19.20;99.90;;;;;;5022943;28;20075;-71
2022/07/31 09:52:59;;;;;;;19.73;16.58;;;19.40;99.90;;;;;;5006446;28;20072;-71
2022/07/31 09:55:25;;;;;;;17.98;13.95;;;19.30;99.90;;;;;;5024624;28;20041;-71
2022/07/31 09:57:56;;;;;;;19.90;15.20;;;19.40;99.90;;;;;;5026343;28;20060;-71
2022/07/31 10:00:22;;;;;;;20.17;14.57;;;19.40;99.90;;;;;;5025367;28;20077;-72
2022/07/31 10:02:50;;;;;;;20.33;14.95;;;19.30;99.90;;;;;;5025167;28;20045;-70
2022/07/31 10:05:17;;;;;;;22.58;15.52;;;19.30;99.90;;;;;;5024711;28;20067;-71
2022/07/31 10:07:43;;;;;;;22.77;16.85;;;19.20;99.90;;;;;;5026173;28;20054;-69
2022/07/31 10:10:10;;;;;;;19.60;15.45;;;19.10;99.90;;;;;;5025026;28;20228;-69
2022/07/31 10:12:40;;;;;;;24.50;19.33;;;19.20;99.90;;;;;;5026505;28;20045;-69
2022/07/31 10:15:11;;;;;;;26.95;17.17;;;19.10;99.90;;;;;;5026093;28;20048;-70
2022/07/31 10:17:40;;;;;;;19.85;14.38;;;19.10;99.90;;;;;;5004919;28;20121;-69
2022/07/31 10:20:07;;;;;;;14.98;13.38;;;19.00;99.90;;;;;;5018958;28;20037;-69
2022/07/31 10:22:47;;;;;;;20.50;15.55;;;19.30;99.90;;;;;;5021727;28;20045;-69
2022/07/31 10:25:25;;;;;;;23.25;17.65;;;19.10;99.90;;;;;;5019027;28;20079;-70
2022/07/31 10:27:52;;;;;;;19.75;14.70;;;19.00;99.90;;;;;;5025355;28;20044;-70
2022/07/31 10:30:19;;;;;;;29.70;19.23;;;19.40;99.90;;;;;;5022240;28;20061;-69
2022/07/31 10:32:46;;;;;;;22.30;16.65;;;19.10;99.90;;;;;;5017461;28;20038;-72
2022/07/31 10:35:12;;;;;;;17.05;15.18;;;19.30;99.90;;;;;;5020383;28;20053;-71
2022/07/31 10:37:46;;;;;;;18.35;14.68;;;19.50;99.90;;;;;;5036355;28;20443;-71
2022/07/31 10:40:29;;;;;;;16.17;13.90;;;19.30;99.90;;;;;;5018012;28;20045;-71
2022/07/31 10:43:00;;;;;;;19.10;15.15;;;19.20;99.90;;;;;;5020734;28;20068;-69
2022/07/31 10:45:28;;;;;;;20.95;15.15;;;19.20;99.90;;;;;;5022735;28;20096;-72
2022/07/31 10:48:02;;;;;;;16.75;14.90;;;19.00;99.90;;;;;;5038113;28;20120;-70
2022/07/31 10:50:29;;;;;;;22.23;18.25;;;19.20;99.90;;;;;;5038043;28;20102;-72
2022/07/31 10:53:06;;;;;;;19.77;16.95;;;19.30;99.90;;;;;;5035083;28;20061;-69
2022/07/31 10:55:34;;;;;;;22.13;17.10;;;19.10;99.90;;;;;;5022223;28;20410;-71
2022/07/31 10:58:10;;;;;;;28.20;19.33;;;19.10;99.90;;;;;;5021771;28;20046;-71
2022/07/31 11:00:36;;;;;;;26.38;19.70;;;19.20;99.90;;;;;;5022980;28;20049;-70
2022/07/31 11:03:21;;;;;;;21.35;18.10;;;19.20;99.90;;;;;;5020425;28;20419;-71
2022/07/31 11:05:52;;;;;;;22.40;17.23;;;19.10;99.90;;;;;;5018371;28;20088;-70
2022/07/31 11:08:18;;;;;;;20.48;16.80;;;19.40;99.90;;;;;;5026059;28;20096;-71
2022/07/31 11:10:55;;;;;;;20.45;18.25;;;19.30;99.90;;;;;;5023406;28;20037;-70
2022/07/31 11:13:24;;;;;;;22.10;17.77;;;19.30;99.90;;;;;;5022101;28;20046;-70
2022/07/31 11:15:51;;;;;;;25.73;20.20;;;19.30;99.90;;;;;;5017379;28;20037;-70
2022/07/31 11:18:21;;;;;;;20.33;17.95;;;19.20;99.90;;;;;;5017232;28;20073;-70
2022/07/31 11:21:01;;;;;;;23.83;19.48;;;19.40;99.90;;;;;;5023463;28;20056;-71
2022/07/31 11:23:28;;;;;;;;;;;19.30;99.90;;;;;;5024961;28;20095;-71
2022/07/31 11:25:58;;;;;;;29.13;20.75;;;19.20;99.90;;;;;;5022410;28;19972;-70
2022/07/31 11:28:23;;;;;;;25.45;21.30;;;19.40;99.90;;;;;;5003888;28;20049;-70
2022/07/31 11:31:00;;;;;;;30.70;22.13;;;18.90;99.90;;;;;;5040509;28;20045;-71
2022/07/31 11:33:30;;;;;;;23.35;19.80;;;18.90;99.90;;;;;;5023422;28;20048;-73
2022/07/31 11:36:09;;;;;;;26.77;20.92;;;18.90;99.90;;;;;;5025393;28;20381;-73
2022/07/31 11:38:35;;;;;;;23.55;18.90;;;19.30;99.90;;;;;;5021845;28;20721;-71
2022/07/31 11:41:01;;;;;;;26.92;17.98;;;18.90;99.90;;;;;;5001545;28;20408;-72
2022/07/31 11:43:28;;;;;;;17.65;15.02;;;19.00;99.90;;;;;;5026657;28;20057;-72
2022/07/31 11:45:54;;;;;;;20.10;16.02;;;19.20;99.90;;;;;;5027845;28;20132;-73
2022/07/31 11:48:21;;;;;;;22.52;16.77;;;19.30;99.90;;;;;;5024625;28;20045;-72
2022/07/31 11:50:49;;;;;;;15.02;13.43;;;19.40;99.90;;;;;;5009353;28;20073;-72
2022/07/31 11:53:15;;;;;;;16.58;14.50;;;19.10;99.90;;;;;;5021669;28;20412;-72
2022/07/31 11:55:57;;;;;;;19.05;15.50;;;19.30;99.90;;;;;;5027832;28;20115;-72
2022/07/31 11:58:25;;;;;;;18.70;15.55;;;19.00;99.90;;;;;;5027877;28;20385;-72
2022/07/31 12:00:58;;;;;;;18.35;14.75;;;19.50;99.90;;;;;;5017283;28;20030;-71
2022/07/31 12:03:29;;;;;;;17.15;15.18;;;19.40;99.90;;;;;;5025529;28;20041;-71
2022/07/31 12:05:55;;;;;;;20.17;15.00;;;19.10;99.90;;;;;;5027165;28;20053;-71
2022/07/31 12:08:23;;;;;;;20.73;17.50;;;19.60;99.90;;;;;;5025459;28;20056;-70
2022/07/31 12:10:54;;;;;;;25.65;17.73;;;19.40;99.90;;;;;;5026386;28;20434;-68
2022/07/31 12:13:21;;;;;;;24.15;17.25;;;19.50;99.90;;;;;;5019444;28;20046;-69
2022/07/31 12:16:04;;;;;;;24.45;18.60;;;19.10;99.90;;;;;;5027129;28;20037;-71
2022/07/31 12:18:52;;;;;;;20.67;17.08;;;19.00;99.90;;;;;;5024512;28;20045;-71
2022/07/31 12:21:19;;;;;;;21.90;16.23;;;19.20;99.90;;;;;;5023973;28;20076;-71
2022/07/31 12:23:50;;;;;;;19.63;16.27;;;19.20;99.90;;;;;;5026425;28;20129;-71
2022/07/31 12:26:29;;;;;;;18.00;15.85;;;19.00;99.90;;;;;;5026112;28;20069;-73
2022/07/31 12:29:04;;;;;;;19.05;15.82;;;19.00;99.90;;;;;;5023110;28;20049;-71
2022/07/31 12:31:46;;;;;;;15.95;11.70;;;19.20;99.90;;;;;;5023501;28;20361;-73
2022/07/31 12:34:24;;;;;;;14.00;11.68;;;18.90;99.90;;;;;;5024093;28;20085;-73
2022/07/31 12:37:04;;;;;;;16.52;13.40;;;19.20;99.90;;;;;;5005245;28;20033;-72
2022/07/31 12:39:34;;;;;;;14.25;11.48;;;19.00;99.90;;;;;;5026641;28;20041;-72
2022/07/31 12:42:00;;;;;;;17.52;13.27;;;19.40;99.90;;;;;;5024872;28;20080;-72
2022/07/31 12:44:27;;;;;;;16.38;12.32;;;19.60;99.90;;;;;;5026335;28;20180;-72
2022/07/31 12:46:54;;;;;;;16.00;13.30;;;19.40;99.90;;;;;;5008228;28;20041;-71
2022/07/31 12:49:20;;;;;;;13.77;11.73;;;19.70;99.90;;;;;;5025191;28;20115;-72
2022/07/31 12:51:45;;;;;;;13.18;10.48;;;19.80;99.90;;;;;;5026150;28;20124;-72